Time;durP1;ratioP1;P1;durP2;ratioP2;P2;SDS_P1;SDS_P2;PMS_P1;PMS_P2;Temp;Humidity;BMP_temperature;BMP_pressure;BME280_temperature;BME280_humidity;BME280_pressure;Samples;Min_cycle;Max_cycle;Signal;HPM_P1;HPM_P2
2022/02/26 00:01:30;;;;;;;11.17;10.17;;;2.60;99.90;;;;;;4989625;28;20489;-76
2022/02/26 00:03:57;;;;;;;11.10;10.20;;;2.50;99.90;;;;;;5002121;28;20525;-77
2022/02/26 00:06:23;;;;;;;11.47;10.47;;;2.50;99.90;;;;;;4992247;28;20977;-76
2022/02/26 00:08:50;;;;;;;12.43;10.93;;;2.50;99.90;;;;;;4977189;28;20519;-76
2022/02/26 00:11:17;;;;;;;11.47;10.47;;;2.40;99.90;;;;;;4991536;28;20453;-76
2022/02/26 00:13:44;;;;;;;11.77;10.67;;;2.40;99.90;;;;;;4982706;28;20490;-76
2022/02/26 00:16:11;;;;;;;11.00;10.10;;;2.30;99.90;;;;;;4992722;28;20506;-76
2022/02/26 00:18:39;;;;;;;11.10;10.07;;;2.30;99.90;;;;;;5003671;28;20433;-77
2022/02/26 00:21:08;;;;;;;10.83;10.03;;;2.20;99.90;;;;;;4975250;28;20904;-76
2022/02/26 00:23:35;;;;;;;12.60;10.90;;;2.20;99.90;;;;;;4989628;28;20582;-76
2022/02/26 00:26:02;;;;;;;10.93;10.00;;;2.20;99.90;;;;;;4992510;28;20442;-76
2022/02/26 00:28:29;;;;;;;9.73;8.73;;;2.20;99.90;;;;;;4987606;28;20445;-77
2022/02/26 00:30:56;;;;;;;11.03;8.57;;;2.10;99.90;;;;;;4981561;28;20503;-76
2022/02/26 00:33:23;;;;;;;11.40;8.73;;;2.10;99.90;;;;;;4978025;28;20494;-76
2022/02/26 00:35:52;;;;;;;11.93;8.63;;;2.00;99.90;;;;;;5002144;28;20867;-76
2022/02/26 00:38:19;;;;;;;10.00;8.70;;;2.00;99.90;;;;;;4977278;28;20483;-76
2022/02/26 00:40:46;;;;;;;9.97;8.43;;;1.90;99.90;;;;;;4995260;28;20456;-77
2022/02/26 00:43:14;;;;;;;11.27;8.50;;;1.90;99.90;;;;;;4977070;28;21174;-76
2022/02/26 00:45:41;;;;;;;9.77;8.47;;;1.80;99.90;;;;;;4996138;28;20445;-76
2022/02/26 00:48:08;;;;;;;14.97;9.13;;;1.80;99.90;;;;;;4994479;28;20437;-76
2022/02/26 00:50:33;;;;;;;9.53;8.53;;;1.70;99.90;;;;;;4990604;28;20520;-75
2022/02/26 00:53:01;;;;;;;11.50;8.37;;;1.70;99.90;;;;;;4981727;28;20487;-76
2022/02/26 00:55:28;;;;;;;9.53;8.30;;;1.70;99.90;;;;;;4969183;28;20194;-77
2022/02/26 00:57:55;;;;;;;9.97;8.97;;;1.70;99.90;;;;;;4984113;28;20497;-77
2022/02/26 01:00:22;;;;;;;9.90;8.93;;;1.80;99.90;;;;;;4996695;28;20996;-76
2022/02/26 01:02:49;;;;;;;9.57;8.40;;;1.80;99.90;;;;;;4995704;28;20863;-77
2022/02/26 01:05:16;;;;;;;10.47;9.17;;;1.80;99.90;;;;;;4997451;28;20434;-77
2022/02/26 01:07:43;;;;;;;9.70;8.77;;;1.80;99.90;;;;;;4981351;28;20482;-76
2022/02/26 01:10:11;;;;;;;10.77;9.07;;;1.90;99.90;;;;;;4984000;28;20510;-76
2022/02/26 01:12:38;;;;;;;11.03;8.57;;;2.00;99.90;;;;;;4978209;28;20518;-76
2022/02/26 01:15:06;;;;;;;10.63;8.93;;;2.00;99.90;;;;;;4980936;28;20451;-76
2022/02/26 01:17:33;;;;;;;9.53;8.73;;;2.00;99.90;;;;;;4995323;28;20953;-77
2022/02/26 01:20:01;;;;;;;10.67;8.10;;;2.00;99.90;;;;;;4999794;28;20467;-77
2022/02/26 01:22:27;;;;;;;9.17;8.37;;;2.00;99.90;;;;;;4994668;28;20870;-77
2022/02/26 01:24:54;;;;;;;9.80;8.80;;;2.20;99.90;;;;;;4985543;28;20510;-76
2022/02/26 01:27:22;;;;;;;9.37;8.47;;;2.20;99.90;;;;;;4992592;28;20943;-76
2022/02/26 01:29:49;;;;;;;9.77;8.50;;;2.30;99.90;;;;;;4997154;28;20436;-77
2022/02/26 01:32:16;;;;;;;8.87;8.17;;;2.30;99.90;;;;;;4996283;28;20470;-76
2022/02/26 01:34:43;;;;;;;9.50;8.63;;;2.40;99.90;;;;;;4997616;28;20483;-76
2022/02/26 01:37:09;;;;;;;9.87;8.87;;;2.40;99.90;;;;;;4997780;28;20452;-76
2022/02/26 01:39:37;;;;;;;9.27;8.47;;;2.40;99.90;;;;;;4980505;28;20455;-76
2022/02/26 01:42:05;;;;;;;11.43;9.20;;;2.40;99.90;;;;;;4982667;28;20444;-76
2022/02/26 01:44:36;;;;;;;9.77;8.77;;;2.50;99.90;;;;;;4990882;28;20522;-76
2022/02/26 01:47:03;;;;;;;9.40;8.50;;;2.50;99.90;;;;;;5004098;28;20439;-77
2022/02/26 01:49:30;;;;;;;9.47;8.67;;;2.60;99.90;;;;;;4993093;28;20486;-77
2022/02/26 01:51:57;;;;;;;9.50;8.53;;;2.60;99.90;;;;;;5005378;28;20503;-76
2022/02/26 01:54:24;;;;;;;10.77;8.77;;;2.60;99.90;;;;;;4998898;28;20540;-77
2022/02/26 01:56:51;;;;;;;9.43;8.57;;;2.60;99.90;;;;;;4995727;28;20466;-77
2022/02/26 01:59:19;;;;;;;9.50;8.60;;;2.60;99.90;;;;;;5001649;28;20854;-77
2022/02/26 02:01:47;;;;;;;10.63;9.23;;;2.60;99.90;;;;;;4980437;28;20528;-77
2022/02/26 02:04:15;;;;;;;12.47;8.80;;;2.60;99.90;;;;;;4985253;28;20837;-76
2022/02/26 02:06:42;;;;;;;9.03;8.23;;;2.60;99.90;;;;;;4979764;28;20499;-76
2022/02/26 02:09:12;;;;;;;10.10;8.53;;;2.50;99.90;;;;;;5001968;28;20440;-76
2022/02/26 02:11:40;;;;;;;10.40;8.90;;;2.50;99.90;;;;;;4981260;28;20458;-76
2022/02/26 02:14:07;;;;;;;10.30;8.97;;;2.50;99.90;;;;;;4991974;28;20582;-76
2022/02/26 02:16:36;;;;;;;9.27;8.47;;;2.50;99.90;;;;;;4983838;28;20456;-76
2022/02/26 02:19:06;;;;;;;10.80;9.13;;;2.60;99.90;;;;;;4999256;28;20554;-76
2022/02/26 02:21:33;;;;;;;10.30;9.30;;;2.60;99.90;;;;;;4988565;28;20448;-76
2022/02/26 02:24:01;;;;;;;9.90;8.90;;;2.60;99.90;;;;;;4984974;28;20472;-76
2022/02/26 02:26:30;;;;;;;11.73;9.13;;;2.60;99.90;;;;;;4980235;28;20474;-76
2022/02/26 02:28:58;;;;;;;10.30;8.60;;;2.60;99.90;;;;;;5004909;28;20438;-76
2022/02/26 02:31:25;;;;;;;11.13;8.90;;;2.60;99.90;;;;;;5000508;28;20542;-77
2022/02/26 02:33:52;;;;;;;9.47;8.60;;;2.60;99.90;;;;;;5000864;28;20884;-77
2022/02/26 02:36:19;;;;;;;10.03;9.17;;;2.60;99.90;;;;;;5002377;28;20439;-75
2022/02/26 02:38:46;;;;;;;9.87;8.97;;;2.60;99.90;;;;;;5002297;28;20488;-77
2022/02/26 02:41:14;;;;;;;10.60;9.60;;;2.50;99.90;;;;;;4989551;28;20466;-77
2022/02/26 02:43:41;;;;;;;10.83;9.47;;;2.60;99.90;;;;;;4984502;28;20487;-77
2022/02/26 02:46:09;;;;;;;10.07;9.23;;;2.60;99.90;;;;;;4988300;28;20516;-76
2022/02/26 02:48:38;;;;;;;11.10;9.10;;;2.60;99.90;;;;;;5000526;28;20937;-77
2022/02/26 02:51:05;;;;;;;9.70;8.80;;;2.60;99.90;;;;;;4999426;28;20440;-76
2022/02/26 02:53:32;;;;;;;9.60;8.60;;;2.60;99.90;;;;;;4986796;28;20513;-76
2022/02/26 02:55:59;;;;;;;12.87;9.90;;;2.60;99.90;;;;;;5001844;28;20445;-77
2022/02/26 02:58:29;;;;;;;10.07;9.17;;;2.60;99.90;;;;;;5000935;28;20494;-76
2022/02/26 03:00:57;;;;;;;10.03;9.00;;;2.70;99.90;;;;;;4979590;28;20866;-76
2022/02/26 03:03:25;;;;;;;10.83;9.83;;;2.60;99.90;;;;;;4997178;28;20472;-75
2022/02/26 03:05:52;;;;;;;14.77;9.87;;;2.60;99.90;;;;;;5001854;28;20477;-76
2022/02/26 03:08:23;;;;;;;11.70;9.60;;;2.60;99.90;;;;;;4995176;28;20492;-77
2022/02/26 03:10:50;;;;;;;13.50;9.40;;;2.60;99.90;;;;;;4984295;28;20448;-76
2022/02/26 03:13:20;;;;;;;11.53;10.20;;;2.70;99.90;;;;;;4986846;28;20467;-76
2022/02/26 03:15:49;;;;;;;11.87;9.67;;;2.70;99.90;;;;;;4984989;28;20458;-76
2022/02/26 03:18:16;;;;;;;10.80;9.60;;;2.70;99.90;;;;;;5004186;28;20500;-76
2022/02/26 03:20:43;;;;;;;9.80;9.10;;;2.70;99.90;;;;;;4979148;28;20453;-77
2022/02/26 03:23:09;;;;;;;10.47;9.43;;;2.70;99.90;;;;;;5003460;28;20479;-76
2022/02/26 03:25:36;;;;;;;10.13;9.07;;;2.70;99.90;;;;;;5004039;28;20447;-76
2022/02/26 03:28:03;;;;;;;9.97;9.03;;;2.70;99.90;;;;;;5004136;28;20470;-77
2022/02/26 03:30:31;;;;;;;12.73;10.60;;;2.80;99.90;;;;;;4984160;28;20452;-75
2022/02/26 03:32:59;;;;;;;12.93;9.40;;;2.80;99.90;;;;;;5001400;28;20876;-76
2022/02/26 03:35:26;;;;;;;15.53;10.33;;;2.80;99.90;;;;;;5001406;28;20486;-76
2022/02/26 03:37:53;;;;;;;11.60;9.77;;;2.80;99.90;;;;;;4996915;28;20448;-77
2022/02/26 03:40:20;;;;;;;13.83;9.90;;;2.90;99.90;;;;;;4985140;28;20510;-76
2022/02/26 03:42:48;;;;;;;10.43;9.53;;;2.80;99.90;;;;;;4984068;28;21028;-75
2022/02/26 03:45:16;;;;;;;10.27;9.17;;;2.90;99.90;;;;;;4979027;28;20457;-76
2022/02/26 03:47:43;;;;;;;12.37;9.90;;;2.90;99.90;;;;;;4986295;28;20451;-76
2022/02/26 03:50:13;;;;;;;9.80;9.00;;;2.90;99.90;;;;;;4999704;28;20823;-75
2022/02/26 03:52:40;;;;;;;11.33;9.50;;;2.90;99.90;;;;;;4984825;28;20510;-77
2022/02/26 03:55:09;;;;;;;10.73;9.63;;;2.90;99.90;;;;;;4998946;28;20468;-78
2022/02/26 03:57:36;;;;;;;10.00;9.03;;;3.00;99.90;;;;;;4948627;28;20465;-79
2022/02/26 04:00:05;;;;;;;9.90;8.90;;;2.90;99.90;;;;;;4973019;28;20462;-78
2022/02/26 04:02:38;;;;;;;10.30;9.40;;;2.90;99.90;;;;;;4992184;28;20466;-77
2022/02/26 04:05:06;;;;;;;9.90;9.00;;;2.90;99.90;;;;;;4974874;28;20464;-76
2022/02/26 04:07:35;;;;;;;9.93;8.93;;;3.00;99.90;;;;;;4952320;28;20485;-78
2022/02/26 04:10:02;;;;;;;10.17;9.00;;;3.00;99.90;;;;;;4985164;28;20508;-77
2022/02/26 04:12:29;;;;;;;9.90;8.90;;;2.90;99.90;;;;;;4977232;28;20466;-78
2022/02/26 04:14:56;;;;;;;12.17;8.90;;;2.90;99.90;;;;;;4984005;28;20483;-78
2022/02/26 04:17:23;;;;;;;10.20;9.00;;;2.90;99.90;;;;;;4973973;28;20455;-78
2022/02/26 04:19:51;;;;;;;14.57;9.83;;;2.90;99.90;;;;;;4970939;28;20292;-78
2022/02/26 04:22:17;;;;;;;13.67;10.43;;;2.90;99.90;;;;;;4983910;28;20212;-78
2022/02/26 04:24:46;;;;;;;11.53;10.37;;;2.90;99.90;;;;;;4969825;28;20533;-78
2022/02/26 04:27:13;;;;;;;10.50;9.50;;;2.90;99.90;;;;;;4961362;28;20456;-78
2022/02/26 04:29:39;;;;;;;12.53;10.10;;;2.90;99.90;;;;;;4987306;28;20814;-78
2022/02/26 04:32:07;;;;;;;14.47;10.60;;;2.90;99.90;;;;;;4971217;28;20514;-77
2022/02/26 04:34:34;;;;;;;10.93;9.63;;;2.90;99.90;;;;;;4984753;28;20566;-78
2022/02/26 04:37:01;;;;;;;11.90;10.23;;;2.90;99.90;;;;;;4968803;28;20507;-78
2022/02/26 04:39:29;;;;;;;11.63;10.53;;;2.80;99.90;;;;;;4962501;28;20462;-78
2022/02/26 04:42:03;;;;;;;14.43;10.27;;;2.80;99.90;;;;;;4963831;28;20464;-78
2022/02/26 04:44:30;;;;;;;12.13;10.60;;;2.90;99.90;;;;;;4977109;28;20475;-78
2022/02/26 04:46:57;;;;;;;11.10;10.10;;;2.90;99.90;;;;;;4968115;28;20484;-78
2022/02/26 04:49:24;;;;;;;10.40;9.40;;;2.90;99.90;;;;;;4982469;28;20440;-78
2022/02/26 04:51:51;;;;;;;11.97;10.10;;;3.00;99.90;;;;;;4988209;28;20451;-78
2022/02/26 04:54:18;;;;;;;15.03;10.60;;;3.00;99.90;;;;;;4981655;28;20246;-76
2022/02/26 04:56:45;;;;;;;12.83;10.63;;;2.90;99.90;;;;;;4991422;28;20437;-76
2022/02/26 04:59:13;;;;;;;14.63;11.30;;;2.90;99.90;;;;;;4978649;28;20475;-77
2022/02/26 05:01:40;;;;;;;12.30;11.20;;;3.00;99.90;;;;;;4965779;28;20453;-78
2022/02/26 05:04:07;;;;;;;13.33;10.87;;;3.00;99.90;;;;;;4990830;28;20514;-78
2022/02/26 05:06:34;;;;;;;14.27;10.87;;;3.00;99.90;;;;;;4982448;28;20212;-77
2022/02/26 05:09:01;;;;;;;12.10;10.90;;;3.00;99.90;;;;;;4969725;28;20459;-77
2022/02/26 05:11:29;;;;;;;11.83;10.37;;;3.00;99.90;;;;;;4973082;28;20462;-77
2022/02/26 05:13:56;;;;;;;14.67;11.70;;;3.00;99.90;;;;;;4979491;28;20471;-78
2022/02/26 05:16:24;;;;;;;14.03;10.53;;;3.00;99.90;;;;;;4984883;28;20534;-77
2022/02/26 05:18:51;;;;;;;15.60;11.63;;;3.00;99.90;;;;;;4994468;28;20447;-77
2022/02/26 05:21:17;;;;;;;16.27;11.40;;;3.00;99.90;;;;;;4975538;28;20202;-77
2022/02/26 05:23:44;;;;;;;13.63;10.83;;;3.00;99.90;;;;;;4992333;28;20932;-77
2022/02/26 05:26:12;;;;;;;14.07;10.47;;;3.00;99.90;;;;;;4975761;28;20261;-77
2022/02/26 05:28:40;;;;;;;12.77;11.20;;;3.00;99.90;;;;;;4984256;28;20459;-77
2022/02/26 05:31:07;;;;;;;14.47;11.53;;;2.90;99.90;;;;;;4969250;28;20457;-78
2022/02/26 05:33:36;;;;;;;15.77;11.97;;;3.00;99.90;;;;;;4969037;28;20483;-79
2022/02/26 05:36:03;;;;;;;14.53;10.90;;;2.90;99.90;;;;;;5004757;28;20490;-78
2022/02/26 05:38:30;;;;;;;15.43;12.20;;;2.90;99.90;;;;;;4992909;28;20697;-79
2022/02/26 05:40:57;;;;;;;12.47;11.10;;;2.90;99.90;;;;;;4986830;28;20510;-78
2022/02/26 05:43:24;;;;;;;15.67;12.00;;;2.90;99.90;;;;;;4996029;28;20223;-78
2022/02/26 05:45:51;;;;;;;15.27;13.43;;;2.90;99.90;;;;;;4986576;28;20444;-78
2022/02/26 05:48:18;;;;;;;17.73;13.47;;;2.90;99.90;;;;;;4977339;28;20460;-77
2022/02/26 05:50:46;;;;;;;14.83;13.40;;;2.90;99.90;;;;;;4992072;28;20444;-78
2022/02/26 05:53:13;;;;;;;16.47;14.40;;;2.90;99.90;;;;;;4973608;28;20465;-78
2022/02/26 05:55:39;;;;;;;14.00;12.73;;;2.90;99.90;;;;;;4986600;28;20487;-77
2022/02/26 05:58:06;;;;;;;16.40;13.83;;;2.90;99.90;;;;;;4996858;28;20261;-75
2022/02/26 06:00:33;;;;;;;14.40;13.07;;;2.90;99.90;;;;;;4979190;28;20904;-78
2022/02/26 06:03:00;;;;;;;14.63;13.13;;;2.90;99.90;;;;;;4990089;28;20258;-77
2022/02/26 06:05:27;;;;;;;15.00;13.27;;;2.90;99.90;;;;;;5006167;28;20502;-76
2022/02/26 06:07:55;;;;;;;17.10;14.37;;;2.90;99.90;;;;;;4974310;28;20261;-76
2022/02/26 06:10:22;;;;;;;16.40;14.73;;;2.90;99.90;;;;;;4997058;28;20186;-77
2022/02/26 06:12:49;;;;;;;16.77;14.37;;;2.90;99.90;;;;;;4977960;28;20449;-77
2022/02/26 06:15:16;;;;;;;16.00;14.50;;;2.90;99.90;;;;;;4988695;28;20563;-77
2022/02/26 06:17:43;;;;;;;15.20;13.30;;;2.80;99.90;;;;;;4990935;28;20453;-77
2022/02/26 06:20:12;;;;;;;15.03;13.47;;;2.90;99.90;;;;;;4981214;28;20456;-77
2022/02/26 06:22:39;;;;;;;15.60;14.00;;;2.90;99.90;;;;;;4990433;28;20442;-77
2022/02/26 06:25:08;;;;;;;19.53;14.03;;;2.90;99.90;;;;;;4981429;28;20518;-77
2022/02/26 06:27:37;;;;;;;15.30;13.90;;;2.90;99.90;;;;;;4993902;28;20455;-77
2022/02/26 06:30:04;;;;;;;15.00;13.47;;;2.90;99.90;;;;;;4983151;28;20456;-78
2022/02/26 06:32:31;;;;;;;15.60;14.13;;;2.90;99.90;;;;;;4996736;28;20498;-77
2022/02/26 06:34:58;;;;;;;15.20;13.87;;;2.90;99.90;;;;;;4999931;28;20475;-78
2022/02/26 06:37:25;;;;;;;13.50;11.90;;;3.00;99.90;;;;;;4973175;28;20456;-78
2022/02/26 06:39:52;;;;;;;12.77;11.53;;;3.00;99.90;;;;;;4989266;28;20605;-77
2022/02/26 06:42:20;;;;;;;16.50;12.17;;;3.00;99.90;;;;;;4980920;28;20512;-77
2022/02/26 06:44:47;;;;;;;15.23;13.43;;;3.00;99.90;;;;;;4996390;28;20462;-78
2022/02/26 06:47:14;;;;;;;15.37;13.73;;;3.00;99.90;;;;;;4986454;28;20860;-80
2022/02/26 06:49:41;;;;;;;14.03;11.47;;;3.10;99.90;;;;;;4986483;28;20454;-77
2022/02/26 06:52:08;;;;;;;12.60;11.40;;;3.10;99.90;;;;;;4966073;28;20629;-77
2022/02/26 06:54:36;;;;;;;14.10;11.60;;;3.20;99.90;;;;;;4995950;28;20834;-77
2022/02/26 06:57:03;;;;;;;12.10;10.90;;;3.20;99.90;;;;;;4973713;28;20746;-80
2022/02/26 06:59:31;;;;;;;12.13;11.00;;;3.20;99.90;;;;;;4994213;28;20531;-77
2022/02/26 07:01:58;;;;;;;12.37;11.23;;;3.30;99.90;;;;;;4971427;28;20504;-79
2022/02/26 07:04:25;;;;;;;15.67;11.57;;;3.30;99.90;;;;;;5001328;28;20221;-79
2022/02/26 07:06:52;;;;;;;15.40;13.83;;;3.40;99.90;;;;;;4994917;28;20444;-79
2022/02/26 07:09:21;;;;;;;12.70;11.37;;;3.50;99.90;;;;;;4997613;28;20442;-78
2022/02/26 07:11:49;;;;;;;14.40;12.53;;;3.50;99.90;;;;;;4974908;28;20480;-78
2022/02/26 07:14:16;;;;;;;16.53;14.87;;;3.50;99.90;;;;;;4998761;28;20224;-78
2022/02/26 07:16:45;;;;;;;15.20;13.70;;;3.60;99.90;;;;;;4976794;28;20223;-79
2022/02/26 07:19:11;;;;;;;12.73;11.43;;;3.60;99.90;;;;;;4979325;28;20214;-78
2022/02/26 07:21:40;;;;;;;13.77;10.97;;;3.70;99.90;;;;;;5003592;28;20514;-78
2022/02/26 07:24:07;;;;;;;11.67;10.50;;;3.70;99.90;;;;;;4980513;28;21005;-80
2022/02/26 07:26:34;;;;;;;13.27;11.73;;;3.80;99.90;;;;;;4982037;28;20193;-78
2022/02/26 07:29:01;;;;;;;13.50;11.40;;;3.80;99.90;;;;;;4967352;28;20229;-80
2022/02/26 07:31:28;;;;;;;14.50;13.10;;;3.80;99.90;;;;;;4976550;28;20219;-79
2022/02/26 07:33:56;;;;;;;15.63;11.47;;;3.90;99.90;;;;;;4970310;28;20230;-77
2022/02/26 07:36:24;;;;;;;13.07;11.13;;;3.90;99.90;;;;;;4999033;28;20232;-79
2022/02/26 07:38:50;;;;;;;12.27;11.03;;;4.00;99.90;;;;;;4996395;28;20201;-79
2022/02/26 07:41:17;;;;;;;13.97;12.53;;;4.00;99.90;;;;;;4982839;28;20229;-78
2022/02/26 07:43:44;;;;;;;15.90;13.97;;;4.10;99.90;;;;;;4990062;28;20213;-79
2022/02/26 07:46:11;;;;;;;14.43;12.93;;;4.20;99.90;;;;;;4992185;28;20232;-79
2022/02/26 07:48:38;;;;;;;12.40;7.53;;;4.30;99.90;;;;;;4993577;28;20239;-79
2022/02/26 07:51:07;;;;;;;15.33;8.03;;;4.20;99.90;;;;;;4990457;28;20265;-79
2022/02/26 07:53:33;;;;;;;12.20;7.27;;;4.20;99.90;;;;;;4990987;28;20221;-78
2022/02/26 07:56:01;;;;;;;11.80;6.70;;;4.20;99.90;;;;;;4990088;28;20220;-77
2022/02/26 07:58:28;;;;;;;11.67;6.53;;;4.30;99.90;;;;;;4985588;28;20199;-77
2022/02/26 08:00:55;;;;;;;24.20;7.77;;;4.30;99.90;;;;;;4975700;28;20220;-80
2022/02/26 08:03:22;;;;;;;14.07;8.10;;;4.30;99.90;;;;;;4998897;28;20248;-78
2022/02/26 08:05:48;;;;;;;11.23;6.47;;;4.30;99.90;;;;;;4976077;28;20552;-78
2022/02/26 08:08:17;;;;;;;12.97;7.37;;;4.30;99.90;;;;;;4983019;28;20211;-79
2022/02/26 08:10:44;;;;;;;11.30;7.20;;;4.40;99.90;;;;;;4980539;28;20188;-79
2022/02/26 08:13:10;;;;;;;13.67;7.63;;;4.40;99.90;;;;;;4993125;28;20646;-79
2022/02/26 08:15:38;;;;;;;17.63;11.63;;;4.50;99.90;;;;;;4994521;28;20240;-79
2022/02/26 08:18:05;;;;;;;14.40;11.57;;;4.60;99.90;;;;;;4974322;28;20292;-80
2022/02/26 08:20:32;;;;;;;16.77;10.90;;;4.80;99.90;;;;;;4995198;28;20201;-78
2022/02/26 08:22:59;;;;;;;14.83;11.20;;;4.80;99.90;;;;;;4996357;28;20298;-79
2022/02/26 08:25:27;;;;;;;15.03;11.17;;;4.80;99.90;;;;;;4992734;28;20247;-79
2022/02/26 08:27:54;;;;;;;13.70;10.97;;;4.90;99.90;;;;;;4977053;28;20200;-79
2022/02/26 08:30:22;;;;;;;12.00;10.80;;;4.80;99.90;;;;;;4991032;28;20198;-79
2022/02/26 08:32:50;;;;;;;19.27;12.67;;;4.80;99.90;;;;;;4976714;28;20273;-78
2022/02/26 08:35:17;;;;;;;14.73;11.30;;;4.80;99.90;;;;;;4977709;28;20253;-79
2022/02/26 08:37:46;;;;;;;22.07;10.90;;;4.70;99.90;;;;;;4974578;28;20202;-79
2022/02/26 08:40:14;;;;;;;18.30;10.20;;;4.80;99.90;;;;;;4959464;28;20293;-78
2022/02/26 08:42:43;;;;;;;13.57;10.00;;;4.70;99.90;;;;;;4975687;28;20225;-81
2022/02/26 08:45:11;;;;;;;15.40;11.77;;;4.60;99.90;;;;;;4976826;28;20198;-78
2022/02/26 08:47:38;;;;;;;14.97;12.97;;;4.50;99.90;;;;;;4974942;28;20245;-79
2022/02/26 08:50:08;;;;;;;14.87;11.50;;;4.60;99.90;;;;;;4982082;28;20659;-80
2022/02/26 08:52:35;;;;;;;11.57;10.37;;;4.70;99.90;;;;;;4985415;28;20201;-78
2022/02/26 08:55:02;;;;;;;15.93;10.13;;;4.90;99.90;;;;;;4994000;28;20273;-80
2022/02/26 08:57:29;;;;;;;13.40;9.93;;;5.00;99.90;;;;;;5007521;28;20202;-80
2022/02/26 08:59:57;;;;;;;12.47;7.33;;;5.10;99.90;;;;;;4976590;28;20202;-79
2022/02/26 09:02:25;;;;;;;12.80;7.37;;;5.30;99.90;;;;;;4978450;28;20197;-78
2022/02/26 09:04:52;;;;;;;11.17;7.17;;;5.40;99.90;;;;;;4993086;28;20228;-80
2022/02/26 09:07:19;;;;;;;20.27;7.90;;;5.60;99.90;;;;;;4981615;28;20201;-83
2022/02/26 09:09:46;;;;;;;13.73;7.03;;;5.70;99.90;;;;;;4994030;28;20209;-81
2022/02/26 09:12:13;;;;;;;17.07;7.13;;;5.80;99.90;;;;;;4987277;28;20212;-79
2022/02/26 09:14:40;;;;;;;9.87;6.60;;;5.90;99.90;;;;;;4992760;28;20614;-80
2022/02/26 09:17:08;;;;;;;11.50;8.10;;;6.00;99.90;;;;;;4974111;28;20384;-78
2022/02/26 09:19:36;;;;;;;12.57;7.37;;;6.30;99.90;;;;;;4978741;28;20679;-79
2022/02/26 09:22:04;;;;;;;14.47;6.57;;;6.30;99.90;;;;;;4981352;28;20206;-82
2022/02/26 09:24:32;;;;;;;14.27;7.93;;;6.10;99.90;;;;;;4980706;28;20228;-79
2022/02/26 09:26:59;;;;;;;12.40;7.10;;;6.10;99.90;;;;;;4970259;28;20212;-82
2022/02/26 09:29:26;;;;;;;12.50;7.20;;;6.00;99.90;;;;;;4988766;28;20205;-80
2022/02/26 09:31:53;;;;;;;12.07;7.90;;;5.90;99.90;;;;;;4972994;28;20207;-81
2022/02/26 09:34:22;;;;;;;12.23;7.13;;;6.00;99.90;;;;;;4984333;28;20718;-77
2022/02/26 09:36:50;;;;;;;13.00;8.33;;;6.50;99.90;;;;;;4994537;28;20281;-81
2022/02/26 09:39:18;;;;;;;16.33;8.47;;;6.40;99.90;;;;;;4987481;28;20198;-81
2022/02/26 09:41:46;;;;;;;15.60;9.63;;;6.10;99.90;;;;;;4982767;28;20205;-82
2022/02/26 09:44:14;;;;;;;12.90;9.60;;;6.00;99.90;;;;;;4994827;28;20235;-81
2022/02/26 09:46:41;;;;;;;13.63;8.13;;;5.80;99.90;;;;;;4989448;28;20199;-81
2022/02/26 09:49:08;;;;;;;11.80;7.87;;;5.80;99.90;;;;;;4979545;28;20635;-81
2022/02/26 09:51:40;;;;;;;11.67;7.30;;;5.70;99.90;;;;;;4998808;28;20576;-81
2022/02/26 09:54:07;;;;;;;12.53;8.57;;;5.80;99.90;;;;;;4980322;28;20225;-81
2022/02/26 09:56:34;;;;;;;8.90;6.93;;;5.90;99.90;;;;;;4986360;28;20269;-81
2022/02/26 09:59:01;;;;;;;11.90;8.47;;;6.00;99.90;;;;;;4985707;28;20261;-82
2022/02/26 10:01:28;;;;;;;13.73;8.27;;;6.10;99.90;;;;;;4990622;28;20202;-81
2022/02/26 10:04:07;;;;;;;11.37;8.10;;;6.20;99.90;;;;;;4984296;28;20236;-82
2022/02/26 10:06:34;;;;;;;10.23;6.00;;;6.20;99.90;;;;;;5005371;28;20668;-82
2022/02/26 10:09:09;;;;;;;10.43;6.03;;;6.30;99.90;;;;;;5006149;28;20207;-82
2022/02/26 10:11:37;;;;;;;9.80;5.77;;;6.30;99.90;;;;;;4979589;28;20234;-80
2022/02/26 10:14:07;;;;;;;12.77;11.20;;;6.20;99.90;;;;;;4996375;28;20234;-79
2022/02/26 10:16:49;;;;;;;11.07;9.70;;;6.10;99.90;;;;;;5004477;28;20222;-79
2022/02/26 10:19:20;;;;;;;13.87;9.93;;;6.20;99.90;;;;;;4993975;28;20203;-79
2022/02/26 10:21:48;;;;;;;12.77;10.07;;;6.20;99.90;;;;;;4986204;28;20238;-79
2022/02/26 10:24:17;;;;;;;11.67;10.20;;;6.20;99.90;;;;;;4983147;28;20251;-79
2022/02/26 10:26:49;;;;;;;13.57;9.90;;;6.20;99.90;;;;;;4985536;28;20661;-78
2022/02/26 10:29:18;;;;;;;10.10;9.20;;;6.30;99.90;;;;;;4977720;28;20236;-79
2022/02/26 10:31:48;;;;;;;10.37;9.40;;;6.30;99.90;;;;;;4974213;28;20234;-79
2022/02/26 10:34:26;;;;;;;11.10;10.00;;;6.10;99.90;;;;;;4998236;28;20743;-79
2022/02/26 10:36:58;;;;;;;9.80;9.00;;;6.10;99.90;;;;;;4982757;28;20872;-79
2022/02/26 10:39:31;;;;;;;10.73;9.73;;;6.10;99.90;;;;;;4994264;28;20249;-79
2022/02/26 10:41:58;;;;;;;11.03;9.57;;;6.20;99.90;;;;;;5000326;28;20207;-79
2022/02/26 10:44:26;;;;;;;10.10;9.20;;;6.20;99.90;;;;;;5002144;28;20302;-80
2022/02/26 10:46:53;;;;;;;8.67;7.97;;;6.40;99.90;;;;;;5000910;28;20279;-79
2022/02/26 10:49:20;;;;;;;11.87;9.13;;;6.60;99.90;;;;;;5006217;28;20659;-79
2022/02/26 10:51:49;;;;;;;10.13;9.13;;;7.00;99.90;;;;;;4997397;28;20214;-78
2022/02/26 10:54:23;;;;;;;8.83;8.10;;;7.10;99.90;;;;;;5000001;28;20310;-79
2022/02/26 10:56:52;;;;;;;9.90;8.90;;;7.20;99.90;;;;;;4974077;28;20773;-79
2022/02/26 10:59:29;;;;;;;8.97;8.17;;;7.30;99.90;;;;;;4967314;28;20702;-83
2022/02/26 11:02:01;;;;;;;10.80;8.47;;;7.40;99.90;;;;;;4994571;28;20672;-79
2022/02/26 11:04:28;;;;;;;8.40;7.70;;;7.30;99.90;;;;;;4974191;28;20231;-78
2022/02/26 11:06:55;;;;;;;9.07;8.03;;;7.30;99.90;;;;;;4980841;28;20565;-79
2022/02/26 11:09:23;;;;;;;10.40;8.33;;;7.40;99.90;;;;;;4982794;28;20203;-79
2022/02/26 11:11:52;;;;;;;8.93;7.27;;;7.40;99.90;;;;;;4991931;28;20199;-80
2022/02/26 11:14:20;;;;;;;9.07;7.90;;;7.40;99.90;;;;;;4998872;28;20222;-79
2022/02/26 11:16:50;;;;;;;9.73;7.60;;;7.30;99.90;;;;;;5005375;28;20366;-79
2022/02/26 11:19:20;;;;;;;10.83;8.37;;;7.00;99.90;;;;;;4974756;28;20207;-79
2022/02/26 11:21:48;;;;;;;8.67;7.93;;;6.90;99.90;;;;;;4992210;28;20284;-79
2022/02/26 11:24:17;;;;;;;12.30;8.20;;;6.50;99.90;;;;;;5007955;28;20315;-80
2022/02/26 11:26:45;;;;;;;10.53;8.40;;;6.60;99.90;;;;;;4981659;28;20196;-79
2022/02/26 11:29:16;;;;;;;8.63;7.83;;;6.50;99.90;;;;;;4982677;28;20256;-78
2022/02/26 11:31:47;;;;;;;9.10;7.70;;;6.50;99.90;;;;;;4978415;28;20203;-79
2022/02/26 11:34:22;;;;;;;10.67;8.10;;;6.40;99.90;;;;;;4998379;28;20316;-81
2022/02/26 11:36:51;;;;;;;11.03;8.40;;;6.30;99.90;;;;;;4997829;28;20214;-79
2022/02/26 11:39:29;;;;;;;12.13;8.77;;;6.30;99.90;;;;;;4983544;28;20203;-79
2022/02/26 11:42:27;;;;;;;11.40;8.40;;;6.20;99.90;;;;;;4980496;28;20455;-79
2022/02/26 11:44:59;;;;;;;10.90;8.23;;;6.00;99.90;;;;;;4969733;28;20525;-81
2022/02/26 11:47:33;;;;;;;9.37;7.57;;;6.00;99.90;;;;;;4985470;28;20632;-81
2022/02/26 11:52:48;;;;;;;11.57;7.97;;;6.40;99.90;;;;;;4990546;28;20269;-78
2022/02/26 11:55:27;;;;;;;6.80;6.13;;;6.60;99.90;;;;;;4968423;28;20692;-79
2022/02/26 11:57:56;;;;;;;7.53;6.17;;;6.60;99.90;;;;;;4999069;28;20278;-79
2022/02/26 12:00:25;;;;;;;9.93;8.70;;;6.50;99.90;;;;;;4984365;28;20209;-77
2022/02/26 12:03:25;;;;;;;8.20;7.50;;;6.50;99.90;;;;;;4983435;28;20606;-77
2022/02/26 12:05:53;;;;;;;13.10;7.47;;;6.60;99.90;;;;;;4982932;28;20671;-79
2022/02/26 12:08:34;;;;;;;8.37;7.67;;;6.60;99.90;;;;;;4997392;28;20700;-80
2022/02/26 12:11:01;;;;;;;9.07;8.37;;;6.60;99.90;;;;;;4974098;28;20629;-78
2022/02/26 12:13:31;;;;;;;9.30;8.33;;;6.70;99.90;;;;;;4988859;28;20727;-78
2022/02/26 12:16:10;;;;;;;7.90;7.20;;;6.50;99.90;;;;;;4981681;28;20217;-78
2022/02/26 12:18:41;;;;;;;11.80;7.70;;;6.40;99.90;;;;;;4984009;28;20200;-78
2022/02/26 12:21:10;;;;;;;7.73;7.00;;;6.20;99.90;;;;;;4972406;28;20283;-78
2022/02/26 12:23:38;;;;;;;8.33;7.50;;;6.00;99.90;;;;;;5006445;28;20213;-79
2022/02/26 12:26:08;;;;;;;7.93;7.27;;;6.10;99.90;;;;;;4985713;28;20639;-78
2022/02/26 12:28:35;;;;;;;8.73;7.80;;;6.40;99.90;;;;;;4986788;28;20698;-78
2022/02/26 12:31:03;;;;;;;13.77;8.03;;;6.70;99.90;;;;;;4967366;28;20208;-77
2022/02/26 12:33:41;;;;;;;10.53;8.20;;;6.60;99.90;;;;;;4991692;28;20224;-77
2022/02/26 12:36:09;;;;;;;8.90;8.00;;;6.40;99.90;;;;;;4984382;28;20292;-78
2022/02/26 12:38:47;;;;;;;10.27;9.10;;;6.50;99.90;;;;;;4982336;28;20196;-76
2022/02/26 12:41:32;;;;;;;10.13;9.20;;;6.60;99.90;;;;;;4961366;28;20286;-78
2022/02/26 12:44:00;;;;;;;9.17;8.30;;;6.70;99.90;;;;;;4979089;28;20283;-78
2022/02/26 12:46:28;;;;;;;9.13;8.20;;;7.00;99.90;;;;;;4973314;28;20204;-78
2022/02/26 12:48:57;;;;;;;8.23;7.40;;;7.10;99.90;;;;;;4975042;28;20215;-77
2022/02/26 12:51:25;;;;;;;9.70;7.83;;;7.10;99.90;;;;;;4978737;28;20667;-79
2022/02/26 12:53:52;;;;;;;8.37;7.40;;;7.10;99.90;;;;;;4978477;28;20223;-78